Time;durP1;ratioP1;P1;durP2;ratioP2;P2;SDS_P1;SDS_P2;PMS_P1;PMS_P2;Temp;Humidity;BMP_temperature;BMP_pressure;BME280_temperature;BME280_humidity;BME280_pressure;Samples;Min_cycle;Max_cycle;Signal;HPM_P1;HPM_P2
2021/06/27 00:01:54;;;;;;;6.60;5.95;;;;;;;19.36;59.08;100201.50;126848;1090;102881;-83
2021/06/27 00:04:42;;;;;;;9.27;6.33;;;;;;;19.32;58.92;100202.67;126882;1089;114086;-83
2021/06/27 00:07:29;;;;;;;;;;;;;;;19.28;59.31;100198.56;126767;1090;102988;-82
2021/06/27 00:10:23;;;;;;;6.57;5.87;;;;;;;19.23;59.44;100206.81;126710;1089;102948;-83
2021/06/27 00:13:12;;;;;;;7.47;6.70;;;;;;;19.21;59.36;100205.20;126665;1090;102914;-82
2021/06/27 00:16:00;;;;;;;6.97;5.97;;;;;;;19.15;59.62;100197.70;126664;1089;114341;-84
2021/06/27 00:18:49;;;;;;;7.17;5.93;;;;;;;19.13;59.68;100191.67;126761;1088;102946;-84
2021/06/27 00:21:36;;;;;;;12.30;10.07;;;;;;;19.13;59.46;100199.61;126627;1090;114227;-84
2021/06/27 00:24:24;;;;;;;8.77;7.67;;;;;;;19.10;59.49;100198.02;126863;1090;103081;-82
2021/06/27 00:27:12;;;;;;;7.30;6.50;;;;;;;19.09;59.52;100198.98;126624;1089;114325;-82
2021/06/27 00:29:59;;;;;;;7.87;6.50;;;;;;;19.11;59.56;100206.80;126813;1088;102908;-82
2021/06/27 00:32:47;;;;;;;7.50;6.70;;;;;;;19.06;59.73;100209.77;126883;1090;102840;-82
2021/06/27 00:35:36;;;;;;;7.37;6.53;;;;;;;19.01;59.79;100207.41;126660;1090;114145;-82
2021/06/27 00:38:25;;;;;;;8.67;6.17;;;;;;;18.98;59.93;100209.42;126777;1090;102987;-82
2021/06/27 00:41:14;;;;;;;8.03;6.47;;;;;;;18.95;60.26;100206.98;126766;1089;113131;-83
2021/06/27 00:44:03;;;;;;;6.70;6.00;;;;;;;18.94;60.05;100210.58;126896;1089;102965;-83
2021/06/27 00:46:54;;;;;;;9.37;6.60;;;;;;;18.91;60.10;100205.51;126792;1089;114137;-83
2021/06/27 00:49:42;;;;;;;7.07;6.37;;;;;;;18.87;60.17;100204.03;126805;1090;103304;-83
2021/06/27 00:52:29;;;;;;;;;;;;;;;18.81;60.31;100207.06;126754;1090;113534;-83
2021/06/27 00:55:18;;;;;;;8.00;6.40;;;;;;;18.76;60.38;100190.67;126897;1089;102824;-83
2021/06/27 00:58:07;;;;;;;7.77;6.97;;;;;;;18.74;60.41;100195.22;126654;1088;114284;-83
2021/06/27 01:00:56;;;;;;;7.53;6.73;;;;;;;18.74;60.75;100192.58;126862;1089;102847;-83
2021/06/27 01:03:43;;;;;;;9.50;6.50;;;;;;;18.71;60.75;100197.13;126666;1089;114247;-83
2021/06/27 01:06:31;;;;;;;9.23;6.10;;;;;;;18.69;60.55;100198.17;126807;1089;102964;-83
2021/06/27 01:09:19;;;;;;;7.87;7.03;;;;;;;18.65;60.63;100199.30;126804;1090;114618;-83
2021/06/27 01:12:08;;;;;;;8.27;6.57;;;;;;;18.62;60.93;100202.97;126802;1089;102844;-83
2021/06/27 01:14:56;;;;;;;9.93;7.20;;;;;;;18.56;60.92;100200.73;126909;1089;102852;-83
2021/06/27 01:17:47;;;;;;;9.87;7.50;;;;;;;18.49;60.84;100194.18;126658;1090;112926;-83
2021/06/27 01:20:41;;;;;;;8.30;7.10;;;;;;;18.45;61.04;100203.23;126748;1090;101842;-83
2021/06/27 01:23:29;;;;;;;10.93;6.67;;;;;;;18.37;61.12;100201.09;126673;1090;114435;-83
2021/06/27 01:26:18;;;;;;;7.23;6.33;;;;;;;18.35;61.55;100207.43;126817;1090;102867;-83
2021/06/27 01:29:07;;;;;;;11.17;7.00;;;;;;;18.36;61.47;100209.13;126729;1090;114525;-83
2021/06/27 01:31:54;;;;;;;;;;;;;;;18.35;61.58;100203.00;126989;1089;101791;-83
2021/06/27 01:34:44;;;;;;;7.37;6.47;;;;;;;18.36;61.20;100204.69;126701;1090;102965;-83
2021/06/27 01:37:32;;;;;;;8.83;7.03;;;;;;;18.36;61.64;100198.56;126720;1090;102877;-83
2021/06/27 01:40:23;;;;;;;9.50;7.73;;;;;;;18.32;61.57;100205.00;126707;1089;113273;-83
2021/06/27 01:43:13;;;;;;;9.10;7.33;;;;;;;18.26;61.64;100210.65;126802;1089;102855;-83
2021/06/27 01:46:02;;;;;;;7.97;6.50;;;;;;;18.23;61.65;100203.78;126840;1089;114386;-83
2021/06/27 01:48:50;;;;;;;7.43;6.67;;;;;;;18.21;61.96;100210.11;126744;1089;102863;-83
2021/06/27 01:51:39;;;;;;;8.30;6.30;;;;;;;18.18;61.75;100208.52;126693;1089;114475;-83
2021/06/27 01:54:27;;;;;;;8.93;7.37;;;;;;;18.20;61.99;100195.22;126775;1089;102958;-83
2021/06/27 01:57:21;;;;;;;9.17;7.03;;;;;;;18.21;61.96;100205.67;126773;1089;102942;-83
2021/06/27 02:00:11;;;;;;;7.77;6.97;;;;;;;18.19;62.09;100201.45;126700;1088;102888;-83
2021/06/27 02:03:03;;;;;;;10.30;7.63;;;;;;;18.18;62.11;100207.67;126802;1090;102851;-83
2021/06/27 02:05:51;;;;;;;8.05;7.25;;;;;;;18.17;62.10;100204.19;126652;1089;113243;-83
2021/06/27 02:08:43;;;;;;;10.17;7.47;;;;;;;18.18;62.08;100199.75;126754;1090;102968;-83
2021/06/27 02:11:31;;;;;;;8.63;7.23;;;;;;;18.16;62.26;100201.64;126789;1089;113559;-83
2021/06/27 02:14:19;;;;;;;7.97;6.80;;;;;;;18.18;62.30;100197.11;126747;1090;102933;-83
2021/06/27 02:17:08;;;;;;;;;;;;;;;18.19;62.49;100198.80;126841;1088;114148;-83
2021/06/27 02:19:57;;;;;;;10.90;7.80;;;;;;;18.16;62.46;100204.28;126732;1089;103389;-83
2021/06/27 02:22:46;;;;;;;8.70;7.33;;;;;;;18.11;62.50;100205.41;126762;1088;114292;-83
2021/06/27 02:25:34;;;;;;;8.30;6.97;;;;;;;18.09;62.54;100207.30;126714;1089;103009;-83
2021/06/27 02:28:22;;;;;;;;;;;;;;;18.07;62.56;100201.27;126695;1090;114320;-83
2021/06/27 02:31:09;;;;;;;10.53;7.53;;;;;;;18.08;62.91;100204.76;126680;1089;102988;-83
2021/06/27 02:33:59;;;;;;;9.37;7.43;;;;;;;18.07;62.87;100203.06;126584;1088;114467;-83
2021/06/27 02:36:48;;;;;;;9.10;7.77;;;;;;;18.08;62.75;100208.24;126778;1089;102883;-83
2021/06/27 02:39:36;;;;;;;8.60;7.60;;;;;;;18.10;62.68;100208.14;126747;1089;102949;-83
2021/06/27 02:42:23;;;;;;;10.53;7.93;;;;;;;18.10;62.76;100210.78;126657;1089;113372;-83
2021/06/27 02:45:12;;;;;;;;;;;;;;;18.11;62.83;100204.55;126759;1088;102863;-83
2021/06/27 02:47:59;;;;;;;11.38;7.45;;;;;;;18.15;62.67;100197.31;126622;1090;102853;-83
2021/06/27 02:50:48;;;;;;;10.83;7.77;;;;;;;18.17;62.84;100204.19;126748;1090;102673;-83
2021/06/27 02:53:35;;;;;;;8.60;7.53;;;;;;;18.22;62.56;100201.23;126593;1089;113402;-83
2021/06/27 02:56:26;;;;;;;9.55;7.35;;;;;;;18.25;62.67;100198.39;126734;1090;102948;-83
2021/06/27 02:59:14;;;;;;;10.20;8.13;;;;;;;18.26;62.40;100202.73;126650;1089;114347;-83
2021/06/27 03:02:02;;;;;;;8.43;7.53;;;;;;;18.27;62.28;100199.14;126737;1090;102998;-83
2021/06/27 03:04:50;;;;;;;9.23;7.90;;;;;;;18.29;62.70;100191.97;126606;1090;114282;-83
2021/06/27 03:07:38;;;;;;;8.73;7.50;;;;;;;18.30;62.59;100199.78;126890;1089;102967;-83
2021/06/27 03:10:26;;;;;;;8.83;7.50;;;;;;;18.33;62.79;100199.61;126672;1090;114513;-83
2021/06/27 03:13:14;;;;;;;10.57;7.53;;;;;;;18.39;62.54;100198.36;126720;1090;102855;-82
2021/06/27 03:16:03;;;;;;;8.30;7.37;;;;;;;18.41;62.55;100196.45;126631;1089;114644;-83
2021/06/27 03:18:51;;;;;;;9.77;7.70;;;;;;;18.46;62.59;100199.63;126773;1089;102977;-83
2021/06/27 03:21:39;;;;;;;9.33;8.37;;;;;;;18.50;62.71;100192.38;126735;1089;102841;-83
2021/06/27 03:24:27;;;;;;;8.07;7.27;;;;;;;18.52;62.56;100201.05;126587;1089;114108;-83
2021/06/27 03:27:14;;;;;;;;;;;;;;;18.54;62.54;100193.87;126830;1090;102437;-82
2021/06/27 03:30:04;;;;;;;9.33;7.57;;;;;;;18.55;62.19;100198.20;126682;1090;103020;-83
2021/06/27 03:32:51;;;;;;;7.90;6.80;;;;;;;18.54;62.34;100197.36;126900;1089;103303;-83
2021/06/27 03:35:39;;;;;;;7.47;6.43;;;;;;;18.56;62.31;100195.45;126662;1088;113099;-82
2021/06/27 03:38:39;;;;;;;;;;;;;;;18.61;62.20;100198.63;126800;1088;102834;-83
2021/06/27 03:41:30;;;;;;;7.53;6.73;;;;;;;18.64;62.18;100187.89;126665;1089;101635;-85
2021/06/27 03:44:18;;;;;;;7.70;6.87;;;;;;;18.69;62.19;100188.45;126858;1089;102849;-82
2021/06/27 03:47:07;;;;;;;8.67;7.30;;;;;;;18.71;61.92;100183.91;126712;1090;114774;-83
2021/06/27 03:49:55;;;;;;;7.83;6.70;;;;;;;18.74;61.31;100188.14;126913;1089;103012;-83
2021/06/27 03:52:43;;;;;;;11.53;9.90;;;;;;;18.74;61.51;100192.58;126829;1089;114257;-82
2021/06/27 03:55:31;;;;;;;11.90;9.27;;;;;;;18.76;61.71;100186.23;126792;1089;102996;-84
2021/06/27 03:58:19;;;;;;;10.25;7.95;;;;;;;18.80;61.86;100192.16;126609;1089;114440;-84
2021/06/27 04:01:07;;;;;;;9.23;8.23;;;;;;;18.84;61.63;100186.55;126846;1090;102863;-84
2021/06/27 04:03:54;;;;;;;11.53;9.23;;;;;;;18.88;61.21;100188.06;126763;1090;102893;-84
2021/06/27 04:06:43;;;;;;;8.90;7.40;;;;;;;18.93;61.15;100182.46;126657;1089;114273;-84
2021/06/27 04:09:30;;;;;;;8.03;7.20;;;;;;;18.99;61.08;100182.03;126744;1089;103020;-84
2021/06/27 04:12:18;;;;;;;9.87;8.43;;;;;;;19.06;61.17;100182.48;126601;1090;114184;-84
2021/06/27 04:15:08;;;;;;;9.90;8.90;;;;;;;19.07;60.98;100179.73;126909;1089;102754;-84
2021/06/27 04:17:56;;;;;;;10.43;7.90;;;;;;;19.12;61.42;100177.61;126657;1089;114426;-84
2021/06/27 04:20:43;;;;;;;9.17;7.70;;;;;;;19.17;61.63;100175.48;126863;1089;101602;-84
2021/06/27 04:23:35;;;;;;;9.10;8.20;;;;;;;19.24;60.98;100171.48;126766;1088;114384;-84
2021/06/27 04:26:22;;;;;;;8.70;7.63;;;;;;;19.30;60.94;100178.14;126679;1090;103088;-84
2021/06/27 04:29:12;;;;;;;;;;;;;;;19.38;61.13;100172.30;126686;1089;114665;-84
2021/06/27 04:32:00;;;;;;;9.07;8.10;;;;;;;19.44;60.86;100180.67;126781;1090;103274;-84
2021/06/27 04:34:48;;;;;;;10.83;8.30;;;;;;;19.48;61.14;100178.66;126682;1090;114456;-84
2021/06/27 04:37:36;;;;;;;9.40;7.73;;;;;;;19.49;60.93;100175.06;126785;1089;102871;-84
2021/06/27 04:40:24;;;;;;;9.83;8.37;;;;;;;19.59;60.55;100184.93;126706;1090;114398;-84
2021/06/27 04:43:13;;;;;;;8.97;7.73;;;;;;;19.66;60.68;100180.04;126892;1088;102657;-84
2021/06/27 04:46:01;;;;;;;8.47;7.50;;;;;;;19.75;60.65;100178.52;126728;1089;102897;-84
2021/06/27 04:48:49;;;;;;;9.03;7.50;;;;;;;19.88;60.62;100177.55;126611;1090;114118;-84
2021/06/27 04:51:37;;;;;;;8.43;7.60;;;;;;;19.96;60.46;100190.25;126766;1090;103003;-84
2021/06/27 04:54:25;;;;;;;9.77;7.77;;;;;;;20.04;60.36;100182.59;126575;1089;114335;-84
2021/06/27 04:57:13;;;;;;;11.07;8.67;;;;;;;20.06;59.64;100179.83;126754;1089;102746;-84
2021/06/27 05:00:03;;;;;;;10.07;8.77;;;;;;;20.16;59.60;100175.56;126736;1089;114368;-84
2021/06/27 05:02:51;;;;;;;9.70;8.50;;;;;;;20.30;60.03;100178.05;126780;1089;102995;-84
2021/06/27 05:05:39;;;;;;;7.90;7.10;;;;;;;20.41;59.26;100186.06;126624;1090;114235;-84
2021/06/27 05:08:26;;;;;;;10.00;6.83;;;;;;;20.57;59.94;100187.58;126719;1090;103011;-84
2021/06/27 05:11:15;;;;;;;7.77;6.97;;;;;;;20.70;59.36;100183.06;126635;1089;114405;-84
2021/06/27 05:14:02;;;;;;;;;;;;;;;20.81;59.10;100183.08;126806;1090;102865;-84
2021/06/27 05:16:50;;;;;;;8.35;7.30;;;;;;;20.96;59.04;100181.92;126652;1089;103346;-84
2021/06/27 05:19:38;;;;;;;8.90;7.40;;;;;;;21.13;58.32;100184.13;126698;1090;102890;-84
2021/06/27 05:22:26;;;;;;;6.85;5.90;;;;;;;21.33;57.88;100181.77;126694;1090;103028;-84
2021/06/27 05:25:14;;;;;;;7.27;5.63;;;;;;;21.60;57.00;100181.44;126758;1089;102970;-84
2021/06/27 05:28:01;;;;;;;6.03;5.43;;;;;;;21.91;56.98;100178.03;126739;1090;102852;-84
2021/06/27 05:30:49;;;;;;;7.93;5.77;;;;;;;22.26;55.96;100183.17;126596;1089;114328;-84
2021/06/27 05:33:37;;;;;;;7.33;5.70;;;;;;;22.50;55.41;100182.97;126774;1090;102865;-84
2021/06/27 05:36:24;;;;;;;7.37;5.40;;;;;;;22.77;55.07;100182.47;126619;1090;114216;-84
2021/06/27 05:39:13;;;;;;;10.27;7.90;;;;;;;23.09;54.29;100185.09;126837;1090;103068;-81
2021/06/27 05:42:00;;;;;;;7.57;5.80;;;;;;;23.41;54.41;100182.34;126615;1088;114841;-84
2021/06/27 05:44:49;;;;;;;5.70;5.13;;;;;;;23.78;54.10;100184.48;126746;1088;103097;-84
2021/06/27 05:47:37;;;;;;;5.90;5.13;;;;;;;24.04;52.70;100177.66;126607;1089;114665;-84
2021/06/27 05:50:25;;;;;;;5.77;5.10;;;;;;;24.34;52.38;100176.77;126690;1088;103054;-84
2021/06/27 05:53:12;;;;;;;5.33;4.83;;;;;;;24.86;52.44;100173.81;126641;1089;114996;-84
2021/06/27 05:56:10;;;;;;;5.87;4.73;;;;;;;25.41;51.17;100182.00;126697;1090;102967;-84
2021/06/27 05:58:58;;;;;;;6.13;4.75;;;;;;;26.16;50.51;100170.24;126620;1089;114453;-84
2021/06/27 06:01:46;;;;;;;6.87;4.93;;;;;;;27.04;48.41;100169.41;126712;1090;101494;-82
2021/06/27 06:04:34;;;;;;;5.10;4.27;;;;;;;28.57;47.13;100167.52;126692;1090;102860;-84
2021/06/27 06:07:27;;;;;;;6.50;3.50;;;;;;;30.59;44.15;100150.84;126613;1090;114401;-84
2021/06/27 06:10:14;;;;;;;3.97;3.50;;;;;;;32.39;41.12;100153.17;126726;1089;103332;-82
2021/06/27 06:13:02;;;;;;;4.43;3.97;;;;;;;33.90;38.69;100152.58;126802;1089;115336;-82
2021/06/27 06:15:50;;;;;;;5.50;4.30;;;;;;;35.20;36.46;100151.28;126830;1089;101549;-82
2021/06/27 06:18:41;;;;;;;6.03;4.00;;;;;;;36.14;34.64;100147.19;126660;1090;114297;-82
2021/06/27 06:21:29;;;;;;;4.83;3.87;;;;;;;37.20;32.99;100164.34;126815;1088;102820;-82
2021/06/27 06:24:18;;;;;;;3.87;3.50;;;;;;;37.93;30.77;100155.36;126705;1090;113538;-82
2021/06/27 06:27:05;;;;;;;4.20;3.80;;;;;;;38.37;29.85;100148.66;126711;1088;102889;-82
2021/06/27 06:29:54;;;;;;;6.10;3.40;;;;;;;38.78;28.37;100146.95;126625;1088;114488;-82
2021/06/27 06:32:41;;;;;;;3.23;2.90;;;;;;;39.32;28.01;100152.29;126656;1090;102831;-82
2021/06/27 06:35:29;;;;;;;3.50;3.20;;;;;;;39.74;26.70;100152.95;126764;1090;113583;-82
2021/06/27 06:38:17;;;;;;;3.30;2.77;;;;;;;40.33;26.58;100156.25;126728;1088;102891;-82
2021/06/27 06:41:04;;;;;;;4.60;3.30;;;;;;;40.89;25.18;100159.95;126635;1090;114603;-82
2021/06/27 06:43:52;;;;;;;3.30;3.00;;;;;;;40.94;25.61;100151.85;126755;1090;102954;-82
2021/06/27 06:46:41;;;;;;;4.73;3.20;;;;;;;41.08;24.55;100147.66;126712;1090;102830;-82
2021/06/27 06:49:29;;;;;;;3.23;2.93;;;;;;;41.48;24.48;100152.08;126630;1090;114179;-82
2021/06/27 06:52:17;;;;;;;3.20;2.90;;;;;;;41.75;23.31;100157.61;126773;1088;102988;-82
2021/06/27 06:55:06;;;;;;;4.50;2.90;;;;;;;41.98;23.16;100153.75;126690;1089;113221;-81
2021/06/27 06:57:54;;;;;;;3.93;2.93;;;;;;;42.24;23.18;100148.30;126769;1090;102886;-81
2021/06/27 07:00:42;;;;;;;3.67;2.80;;;;;;;42.72;23.19;100149.25;126657;1090;114280;-82
2021/06/27 07:03:30;;;;;;;4.60;2.90;;;;;;;43.17;22.37;100147.11;126736;1090;102994;-81
2021/06/27 07:06:19;;;;;;;4.03;2.70;;;;;;;43.68;22.10;100143.52;126682;1090;114515;-82
2021/06/27 07:09:06;;;;;;;4.10;2.90;;;;;;;43.87;20.96;100151.28;126802;1090;102995;-82
2021/06/27 07:11:54;;;;;;;3.53;3.10;;;;;;;44.00;21.10;100150.77;126651;1090;113606;-82
2021/06/27 07:14:43;;;;;;;4.20;3.10;;;;;;;44.10;20.60;100144.48;126914;1089;103103;-82
2021/06/27 07:17:31;;;;;;;3.67;2.97;;;;;;;44.01;20.36;100155.17;126666;1088;114567;-82
2021/06/27 07:20:19;;;;;;;3.50;3.20;;;;;;;44.09;19.71;100154.65;126899;1089;102906;-82
2021/06/27 07:23:07;;;;;;;4.07;3.00;;;;;;;43.78;19.63;100163.89;126877;1090;102848;-82
2021/06/27 07:25:55;;;;;;;3.20;2.90;;;;;;;43.73;20.01;100156.47;126911;1088;102852;-83
2021/06/27 07:28:42;;;;;;;3.67;3.17;;;;;;;43.92;19.46;100159.53;126770;1089;103032;-83
2021/06/27 07:31:30;;;;;;;4.73;2.93;;;;;;;44.09;19.54;100160.15;126740;1090;114457;-83
2021/06/27 07:34:17;;;;;;;4.13;2.87;;;;;;;44.22;19.43;100167.05;126862;1090;102975;-82
2021/06/27 07:37:05;;;;;;;3.67;3.07;;;;;;;44.23;18.80;100168.70;126715;1090;114634;-83
2021/06/27 07:39:53;;;;;;;4.50;3.30;;;;;;;43.95;18.96;100159.81;126805;1088;102966;-82
2021/06/27 07:42:41;;;;;;;3.97;2.70;;;;;;;43.96;18.97;100166.13;126790;1090;114455;-82
2021/06/27 07:45:29;;;;;;;4.10;2.77;;;;;;;43.86;19.08;100157.88;126809;1089;103034;-82
2021/06/27 07:48:16;;;;;;;3.30;3.00;;;;;;;43.84;18.98;100168.32;126649;1090;114952;-82
2021/06/27 07:51:04;;;;;;;3.30;3.00;;;;;;;43.69;18.65;100161.67;126808;1090;103569;-82
2021/06/27 07:53:52;;;;;;;3.50;2.93;;;;;;;43.45;18.44;100154.95;126753;1089;114670;-82
2021/06/27 07:56:40;;;;;;;4.97;3.00;;;;;;;43.53;18.87;100162.69;126736;1089;103154;-82
2021/06/27 07:59:28;;;;;;;3.27;2.80;;;;;;;43.69;18.96;100155.36;126749;1088;102891;-82
2021/06/27 08:02:16;;;;;;;3.27;2.97;;;;;;;43.76;19.08;100150.42;126693;1090;113197;-82
2021/06/27 08:05:05;;;;;;;3.13;2.83;;;;;;;43.76;18.66;100155.09;126780;1089;102949;-82
2021/06/27 08:07:54;;;;;;;2.90;2.60;;;;;;;43.57;18.64;100143.73;126839;1090;114496;-82
2021/06/27 08:10:46;;;;;;;7.33;6.43;;;;;;;43.66;19.01;100156.70;126918;1090;102847;-83
2021/06/27 08:13:35;;;;;;;3.60;3.07;;;;;;;43.76;18.50;100155.09;126643;1090;115216;-82
2021/06/27 08:16:24;;;;;;;3.13;2.63;;;;;;;43.70;18.37;100157.01;126793;1089;102673;-82
2021/06/27 08:19:12;;;;;;;3.53;2.80;;;;;;;43.57;18.14;100151.98;126721;1090;114276;-82
2021/06/27 08:22:00;;;;;;;3.30;2.40;;;;;;;43.33;18.01;100146.13;126903;1089;103006;-82
2021/06/27 08:24:48;;;;;;;2.70;2.50;;;;;;;43.00;18.27;100142.63;126795;1088;114437;-82
2021/06/27 08:27:37;;;;;;;3.03;2.70;;;;;;;42.75;18.55;100151.50;126891;1089;102930;-82
2021/06/27 08:30:24;;;;;;;2.87;2.20;;;;;;;42.67;18.13;100143.74;126670;1090;115515;-82
2021/06/27 08:33:13;;;;;;;2.80;2.40;;;;;;;42.62;18.05;100151.94;126786;1089;103429;-83
2021/06/27 08:36:00;;;;;;;2.90;2.50;;;;;;;42.36;18.62;100152.77;126642;1088;114669;-82
2021/06/27 08:38:48;;;;;;;5.40;2.63;;;;;;;42.07;18.36;100150.33;126738;1090;102990;-82
2021/06/27 08:41:36;;;;;;;3.00;2.60;;;;;;;41.97;18.48;100149.36;126745;1088;102995;-82
2021/06/27 08:44:24;;;;;;;3.57;2.47;;;;;;;42.03;18.76;100151.91;126751;1088;114505;-82
2021/06/27 08:47:16;;;;;;;2.90;2.23;;;;;;;41.70;18.69;100154.83;126868;1090;102875;-83
2021/06/27 08:50:07;;;;;;;4.73;2.70;;;;;;;40.78;18.74;100141.73;126696;1090;113437;-82
2021/06/27 08:52:56;;;;;;;2.70;2.50;;;;;;;40.49;18.83;100140.98;126846;1090;102750;-82
2021/06/27 08:55:43;;;;;;;2.67;2.40;;;;;;;40.37;19.71;100132.81;126616;1089;113393;-83
2021/06/27 08:58:32;;;;;;;4.40;2.43;;;;;;;40.12;19.69;100142.23;126919;1089;102660;-82
2021/06/27 09:01:22;;;;;;;3.40;2.90;;;;;;;39.89;19.82;100139.59;126717;1090;114263;-82
2021/06/27 09:04:09;;;;;;;3.33;3.03;;;;;;;39.19;19.55;100137.03;126781;1088;102889;-82
2021/06/27 09:07:33;;;;;;;3.73;2.80;;;;;;;38.54;20.59;100147.98;126604;1089;113439;-82
2021/06/27 09:10:24;;;;;;;3.50;3.20;;;;;;;38.44;21.08;100145.02;126900;1089;102850;-84
2021/06/27 09:13:12;;;;;;;3.90;3.13;;;;;;;37.63;21.39;100152.57;126649;1089;114706;-84
2021/06/27 09:16:00;;;;;;;7.70;6.83;;;;;;;36.74;22.22;100153.86;126724;1090;103397;-84
2021/06/27 09:18:49;;;;;;;4.27;3.80;;;;;;;35.72;22.08;100149.44;126758;1090;114632;-84
2021/06/27 09:21:36;;;;;;;3.30;3.00;;;;;;;34.87;23.31;100148.61;126686;1090;103636;-84
2021/06/27 09:24:26;;;;;;;4.60;3.00;;;;;;;35.11;24.15;100141.69;126590;1090;114410;-84
2021/06/27 09:27:24;;;;;;;4.03;3.37;;;;;;;35.56;23.83;100139.11;126868;1088;102856;-84
2021/06/27 09:30:18;;;;;;;3.50;3.00;;;;;;;35.40;23.76;100129.56;126682;1089;114700;-84
2021/06/27 09:33:17;;;;;;;2.50;2.30;;;;;;;35.45;22.96;100140.59;126787;1090;102850;-84
2021/06/27 09:36:09;;;;;;;4.20;2.60;;;;;;;35.68;22.64;100130.05;126608;1090;114606;-84
2021/06/27 09:38:58;;;;;;;2.90;2.60;;;;;;;35.88;22.46;100142.72;126914;1089;102840;-84
2021/06/27 09:41:52;;;;;;;3.07;2.70;;;;;;;36.03;22.98;100145.98;126747;1090;103409;-84
2021/06/27 09:44:42;;;;;;;3.77;2.63;;;;;;;35.89;22.20;100128.94;126592;1090;114075;-84
2021/06/27 09:47:32;;;;;;;2.67;2.47;;;;;;;35.16;23.62;100128.33;126793;1089;102847;-84
2021/06/27 09:50:30;;;;;;;2.50;2.30;;;;;;;34.33;23.31;100138.74;126610;1090;114900;-84
2021/06/27 09:53:35;;;;;;;2.70;2.50;;;;;;;33.61;23.90;100142.88;126762;1090;102837;-84
2021/06/27 09:56:24;;;;;;;2.40;2.20;;;;;;;32.84;24.41;100151.09;126714;1089;114331;-83
2021/06/27 09:59:14;;;;;;;2.73;2.53;;;;;;;32.49;25.62;100144.73;126748;1088;102884;-83
2021/06/27 10:02:04;;;;;;;2.63;2.43;;;;;;;33.00;25.96;100142.69;126785;1090;113461;-83
2021/06/27 10:04:51;;;;;;;6.57;3.00;;;;;;;33.39;25.65;100130.48;126696;1089;102968;-83
2021/06/27 10:07:39;;;;;;;2.67;2.40;;;;;;;33.29;25.16;100129.99;126798;1089;114331;-83
2021/06/27 10:10:27;;;;;;;3.43;2.10;;;;;;;33.22;25.27;100131.84;126723;1089;102876;-83
2021/06/27 10:13:25;;;;;;;2.43;2.23;;;;;;;33.50;25.26;100132.63;126646;1090;114752;-83
2021/06/27 10:16:22;;;;;;;2.67;2.10;;;;;;;33.93;24.53;100132.39;126718;1089;103537;-83
2021/06/27 10:19:10;;;;;;;;;;;;;;;34.17;24.08;100129.13;126616;1090;114677;-83
2021/06/27 10:22:00;;;;;;;2.05;1.90;;;;;;;34.46;23.95;100117.09;126786;1090;103376;-83
2021/06/27 10:24:48;;;;;;;2.27;1.87;;;;;;;34.43;23.08;100133.77;126647;1090;114708;-83
2021/06/27 10:27:36;;;;;;;2.30;1.80;;;;;;;34.38;22.27;100124.61;126764;1090;102959;-84
2021/06/27 10:30:24;;;;;;;1.70;1.60;;;;;;;34.34;22.03;100118.75;126667;1089;114504;-83
2021/06/27 10:33:14;;;;;;;3.33;1.70;;;;;;;33.98;22.15;100121.81;126724;1089;102818;-83
2021/06/27 10:36:03;;;;;;;1.60;1.50;;;;;;;33.48;22.65;100128.45;126693;1090;102902;-83
2021/06/27 10:38:52;;;;;;;2.67;1.70;;;;;;;33.15;22.54;100129.08;126641;1090;114227;-83
2021/06/27 10:41:56;;;;;;;2.03;1.57;;;;;;;33.23;23.23;100125.39;126770;1090;102853;-84
2021/06/27 10:44:58;;;;;;;1.80;1.70;;;;;;;33.26;22.73;100124.99;126622;1089;114274;-82
2021/06/27 10:47:47;;;;;;;1.70;1.60;;;;;;;33.25;23.16;100121.45;126718;1089;102985;-82
2021/06/27 10:50:52;;;;;;;2.53;1.83;;;;;;;33.16;22.78;100102.88;126586;1088;114288;-82
2021/06/27 10:54:15;;;;;;;2.40;1.80;;;;;;;32.70;22.98;100114.20;126750;1090;102772;-82
2021/06/27 10:57:08;;;;;;;2.17;1.60;;;;;;;32.36;23.60;100112.25;126759;1090;114207;-82
2021/06/27 11:00:02;;;;;;;3.77;2.13;;;;;;;32.15;23.61;100111.19;126923;1090;102855;-82
2021/06/27 11:02:51;;;;;;;2.30;1.70;;;;;;;32.02;23.81;100116.44;126593;1090;114352;-84
2021/06/27 11:05:43;;;;;;;1.90;1.70;;;;;;;31.69;24.12;100107.95;126775;1090;102862;-84
2021/06/27 11:08:48;;;;;;;2.33;1.80;;;;;;;31.60;24.98;100114.48;126695;1088;114460;-81
2021/06/27 11:11:53;;;;;;;1.87;1.70;;;;;;;31.66;24.96;100121.81;126745;1089;100474;-82
2021/06/27 11:14:41;;;;;;;2.50;1.70;;;;;;;31.63;25.11;100119.50;126785;1089;114251;-82
2021/06/27 11:17:51;;;;;;;3.60;1.90;;;;;;;31.60;24.54;100119.88;126664;1090;102868;-82
2021/06/27 11:20:48;;;;;;;3.90;2.00;;;;;;;31.21;24.55;100123.69;126615;1089;113302;-82
2021/06/27 11:23:53;;;;;;;2.88;1.75;;;;;;;31.11;24.94;100112.34;126730;1089;102959;-82
2021/06/27 11:26:53;;;;;;;4.13;2.27;;;;;;;30.83;25.12;100109.42;126810;1088;114496;-82
2021/06/27 11:29:42;;;;;;;2.17;1.80;;;;;;;30.16;25.31;100100.38;126774;1090;102892;-82
2021/06/27 11:32:38;;;;;;;2.40;2.17;;;;;;;29.62;26.00;100114.63;126646;1090;114516;-82
2021/06/27 11:35:40;;;;;;;2.45;2.20;;;;;;;29.68;26.54;100113.94;126896;1090;102879;-82
2021/06/27 11:38:40;;;;;;;2.70;2.10;;;;;;;29.63;27.13;100110.95;126788;1089;114321;-82
2021/06/27 11:41:38;;;;;;;5.87;2.03;;;;;;;29.68;26.94;100102.35;126899;1089;102927;-82
2021/06/27 11:44:26;;;;;;;2.20;2.00;;;;;;;29.68;26.58;100091.60;126814;1090;114883;-82
2021/06/27 11:47:25;;;;;;;4.20;1.90;;;;;;;29.66;26.72;100096.31;126763;1090;103052;-82
2021/06/27 11:50:13;;;;;;;2.57;2.00;;;;;;;29.67;26.64;100100.68;126727;1090;114332;-82
2021/06/27 11:53:07;;;;;;;2.27;2.00;;;;;;;29.58;26.09;100093.66;126909;1088;103010;-83
2021/06/27 11:56:08;;;;;;;2.80;2.30;;;;;;;29.47;26.55;100106.48;126851;1088;113197;-82
2021/06/27 11:59:10;;;;;;;5.33;2.20;;;;;;;29.35;26.90;100107.84;126744;1089;102880;-82
2021/06/27 12:02:19;;;;;;;3.53;2.13;;;;;;;29.25;26.56;100093.76;126727;1090;114255;-82
2021/06/27 12:05:10;;;;;;;3.73;1.73;;;;;;;29.21;26.67;100094.28;126830;1088;102959;-82
2021/06/27 12:08:05;;;;;;;2.83;2.00;;;;;;;29.10;26.98;100098.20;126611;1090;114407;-82
2021/06/27 12:10:56;;;;;;;3.30;2.27;;;;;;;29.10;27.04;100098.20;126906;1090;103062;-84
2021/06/27 12:13:43;;;;;;;3.53;2.30;;;;;;;29.03;26.89;100092.66;126658;1090;113344;-82
2021/06/27 12:16:31;;;;;;;2.80;2.17;;;;;;;28.80;27.28;100100.57;126735;1090;102926;-81
2021/06/27 12:19:20;;;;;;;2.93;2.17;;;;;;;28.69;27.46;100089.34;126631;1088;114659;-82
2021/06/27 12:22:09;;;;;;;2.67;2.43;;;;;;;28.69;27.65;100094.70;126783;1089;101655;-84
2021/06/27 12:25:03;;;;;;;3.80;2.60;;;;;;;28.45;27.90;100090.20;126618;1090;114464;-82
2021/06/27 12:27:52;;;;;;;2.40;2.00;;;;;;;28.41;27.54;100087.02;126846;1089;102827;-82
2021/06/27 12:30:58;;;;;;;3.07;2.57;;;;;;;28.24;27.77;100079.95;126633;1090;114733;-82
2021/06/27 12:33:59;;;;;;;3.27;2.60;;;;;;;28.19;28.77;100077.78;126800;1089;102878;-82
2021/06/27 12:36:49;;;;;;;3.00;2.70;;;;;;;28.38;28.51;100083.84;126657;1089;114644;-82
2021/06/27 12:39:38;;;;;;;3.07;2.47;;;;;;;28.33;28.30;100076.28;126906;1089;103505;-82
2021/06/27 12:42:32;;;;;;;3.40;2.67;;;;;;;28.32;28.34;100079.97;126724;1088;102941;-82
2021/06/27 12:45:21;;;;;;;5.23;3.63;;;;;;;28.45;28.82;100074.11;126772;1088;113389;-82
2021/06/27 12:48:12;;;;;;;4.07;2.93;;;;;;;28.62;29.01;100074.94;126732;1089;102861;-84
2021/06/27 12:51:00;;;;;;;3.07;2.70;;;;;;;28.67;28.87;100081.45;126772;1088;114318;-81
2021/06/27 12:54:09;;;;;;;3.50;2.77;;;;;;;28.60;28.61;100075.11;126773;1088;102872;-84
2021/06/27 12:57:02;;;;;;;4.43;3.30;;;;;;;28.49;28.43;100086.17;126685;1090;114530;-84